createdAt,value
2017-05-20T08:09:26.891Z,1010.60
2017-05-20T08:10:18.187Z,1010.60
2017-05-20T08:11:09.474Z,1010.66
2017-05-20T08:12:00.775Z,1010.52
2017-05-20T08:12:52.036Z,1010.75
2017-05-20T08:13:43.335Z,1010.63
2017-05-20T08:14:34.630Z,1010.62
2017-05-20T08:15:25.863Z,1010.72
2017-05-20T08:16:17.101Z,1010.70
2017-05-20T08:17:08.398Z,1010.69
2017-05-20T09:49:05.527Z,1011.21
2017-05-20T09:49:56.767Z,1011.21
2017-05-20T10:01:42.976Z,nan
2017-05-20T14:05:09.581Z,1013.47
2017-05-20T14:06:00.838Z,1013.52
2017-05-20T14:06:59.102Z,1013.55
2017-05-20T14:08:55.861Z,1013.33
2017-05-20T14:09:51.897Z,1013.11
2017-05-20T14:10:43.176Z,1013.19
2017-05-20T14:11:34.439Z,1013.30
2017-05-20T14:12:25.808Z,1013.22
2017-05-20T14:13:17.140Z,1013.25
2017-05-20T14:14:08.395Z,1013.27
2017-05-20T14:14:59.647Z,1013.24
2017-05-20T14:15:50.943Z,1013.31
2017-05-20T14:16:42.195Z,1013.23
2017-05-20T14:17:33.474Z,1013.21
2017-05-20T14:18:24.756Z,1013.23
2017-05-20T14:19:16.008Z,1013.25
2017-05-20T14:20:07.265Z,1013.21
2017-05-20T14:20:58.507Z,1013.25
2017-05-20T14:21:49.762Z,1013.22
2017-05-20T14:22:41.007Z,1013.22
2017-05-20T14:23:32.307Z,1013.28
2017-05-20T14:24:23.567Z,1013.24
2017-05-20T14:25:14.820Z,1013.31
2017-05-20T14:26:06.063Z,1013.30
2017-05-20T14:26:58.223Z,1013.35
2017-05-20T14:27:50.572Z,1013.32
2017-05-20T14:28:41.961Z,1013.26
2017-05-20T14:29:33.371Z,1013.23
2017-05-20T14:30:25.271Z,1013.29
2017-05-20T14:31:17.335Z,1013.33
2017-05-20T14:32:08.618Z,1013.36
2017-05-20T14:32:59.933Z,1013.41
2017-05-20T14:33:53.185Z,1013.46
2017-05-20T14:34:44.471Z,1013.41
2017-05-20T14:35:35.727Z,1013.37
2017-05-20T14:36:26.999Z,1013.45
2017-05-20T14:37:18.270Z,1013.43
2017-05-20T14:38:09.528Z,1013.47
2017-05-20T14:39:00.983Z,1013.46
2017-05-20T14:39:52.439Z,1013.40
2017-05-20T14:40:43.699Z,1013.46
2017-05-20T14:41:34.943Z,1013.49
2017-05-20T14:42:26.187Z,1013.48
2017-05-20T14:43:17.444Z,1013.53
2017-05-20T14:44:08.735Z,1013.47
2017-05-20T14:44:59.987Z,1013.45
2017-05-20T14:45:51.256Z,1013.49
2017-05-20T14:46:42.519Z,1013.56
2017-05-20T14:47:33.775Z,1013.56
2017-05-20T14:48:25.032Z,1013.61
2017-05-20T14:49:16.295Z,1013.63
2017-05-20T14:50:07.567Z,1013.61
2017-05-20T14:50:58.839Z,1013.58
2017-05-20T14:51:50.102Z,1013.64
2017-05-20T14:52:41.389Z,1013.60
2017-05-20T14:53:32.671Z,1013.64
2017-05-20T14:54:23.933Z,1013.58
2017-05-20T14:55:15.187Z,1013.63
2017-05-20T14:56:06.455Z,1013.55
2017-05-20T14:56:57.747Z,1013.64
2017-05-20T14:57:49.008Z,1013.65
2017-05-20T14:58:40.267Z,1013.63
2017-05-20T14:59:31.575Z,1013.68
2017-05-20T15:00:22.847Z,1013.62
2017-05-20T15:01:14.100Z,1013.53
2017-05-20T15:02:05.347Z,1013.57
2017-05-20T15:02:56.603Z,1013.58
2017-05-20T15:03:47.853Z,1013.50
2017-05-20T15:04:39.166Z,1013.63
2017-05-20T15:05:30.440Z,1013.58
2017-05-20T15:06:21.699Z,1013.62
2017-05-20T15:07:12.939Z,1013.61
2017-05-20T15:08:04.188Z,1013.58
2017-05-20T15:08:55.497Z,1013.59
2017-05-20T15:09:46.768Z,1013.61
2017-05-20T15:10:38.019Z,1013.62
2017-05-20T15:11:29.279Z,1013.58
2017-05-20T15:12:20.543Z,1013.65
2017-05-20T15:13:11.796Z,1013.68
2017-05-20T15:14:05.099Z,1013.62
2017-05-20T15:14:56.391Z,1013.64
2017-05-20T15:15:47.656Z,1013.75
2017-05-20T15:16:38.908Z,1013.71
2017-05-20T15:17:30.175Z,1013.66
2017-05-20T15:18:21.427Z,1013.59
2017-05-20T15:19:12.696Z,1013.64
2017-05-20T15:20:03.963Z,1013.71
2017-05-20T15:20:55.219Z,1013.70
2017-05-20T15:21:46.463Z,1013.67
2017-05-20T15:22:37.743Z,1013.73
2017-05-20T15:23:29.002Z,1013.73
2017-05-20T15:24:20.246Z,1013.75
2017-05-20T15:25:11.535Z,1013.71
2017-05-20T15:26:02.808Z,1013.69
2017-05-20T15:26:54.072Z,1013.75
2017-05-20T15:27:45.327Z,1013.69
2017-05-20T15:28:36.591Z,1013.67
2017-05-20T15:29:27.872Z,1013.77
2017-05-20T15:30:19.138Z,1013.76
2017-05-20T15:31:10.386Z,1013.75
2017-05-20T15:32:01.687Z,1013.75
2017-05-20T15:32:53.035Z,1013.75
2017-05-20T15:33:44.371Z,1013.77
2017-05-20T15:34:35.634Z,1013.86
2017-05-20T15:35:26.939Z,1013.77
2017-05-20T15:36:18.207Z,1013.88
2017-05-20T15:37:10.290Z,1013.78
2017-05-20T15:38:01.543Z,1013.84
2017-05-20T15:38:52.815Z,1013.90
2017-05-20T15:39:44.126Z,1013.86
2017-05-20T15:40:35.407Z,1013.83
2017-05-20T15:41:26.663Z,1013.84
2017-05-20T15:42:17.923Z,1013.77
2017-05-20T15:43:09.170Z,1013.78
2017-05-20T15:44:00.469Z,1013.86
2017-05-20T15:44:51.726Z,1013.79
2017-05-20T15:45:43.002Z,1013.85
2017-05-20T15:46:34.274Z,1013.88
2017-05-20T15:47:25.536Z,1013.89
2017-05-20T15:48:16.819Z,1013.83
2017-05-20T15:49:08.095Z,1013.86
2017-05-20T15:49:59.347Z,1013.78
2017-05-20T15:50:50.654Z,1013.84
2017-05-20T15:51:41.919Z,1013.82
2017-05-20T15:52:33.168Z,1013.83
2017-05-20T15:53:25.208Z,1013.87
2017-05-20T15:54:16.487Z,1013.83
2017-05-20T15:55:07.755Z,1013.84
2017-05-20T15:55:59.039Z,1013.85
2017-05-20T15:56:50.295Z,1013.76
2017-05-20T15:57:41.559Z,1013.82
2017-05-20T15:58:32.815Z,1013.88
2017-05-20T15:59:25.003Z,1013.80
2017-05-20T16:00:16.283Z,1013.78
2017-05-20T16:01:07.693Z,1013.83
2017-05-20T16:01:58.951Z,1013.86
2017-05-20T16:02:50.215Z,1013.89
2017-05-20T16:03:41.601Z,1013.89
2017-05-20T16:04:33.560Z,1013.87
2017-05-20T16:05:26.678Z,1013.91
2017-05-20T16:06:18.194Z,1013.86
2017-05-20T16:07:09.474Z,1013.74
2017-05-20T16:08:00.732Z,1013.87
2017-05-20T16:08:51.993Z,1013.74
2017-05-20T16:09:44.279Z,1013.89
2017-05-20T16:10:35.623Z,1013.87
2017-05-20T16:11:26.945Z,1013.86
2017-05-20T16:12:18.227Z,1013.87
2017-05-20T16:13:09.499Z,1013.78
2017-05-20T16:14:00.755Z,1013.83
2017-05-20T16:14:52.029Z,1013.85
2017-05-20T16:15:44.239Z,1013.89
2017-05-20T16:16:35.507Z,1013.87
2017-05-20T16:17:26.784Z,1013.88
2017-05-20T16:18:18.136Z,1013.93
2017-05-20T16:19:09.529Z,1013.91
2017-05-20T16:20:00.851Z,1013.89
2017-05-20T16:20:52.114Z,1013.88
2017-05-20T16:21:43.407Z,1013.90
2017-05-20T16:22:34.672Z,1013.87
2017-05-20T16:23:26.899Z,1013.89
2017-05-20T16:24:18.174Z,1013.92
2017-05-20T16:25:09.451Z,1013.97
2017-05-20T16:26:00.739Z,1013.97
2017-05-20T16:26:52.063Z,1013.95
2017-05-20T16:27:45.243Z,1013.93
2017-05-20T16:28:36.552Z,1013.91
2017-05-20T16:29:27.820Z,1013.90
2017-05-20T16:30:19.100Z,1013.89
2017-05-20T16:31:11.321Z,1013.82
2017-05-20T16:32:03.452Z,1013.97
2017-05-20T16:32:54.719Z,1013.96
2017-05-20T16:33:46.003Z,1013.91
2017-05-20T16:34:37.255Z,1013.87
2017-05-20T16:35:28.516Z,1013.97
2017-05-20T16:36:19.827Z,1013.94
2017-05-20T16:37:12.107Z,1013.98
2017-05-20T16:38:04.141Z,1013.96
2017-05-20T16:38:55.435Z,1013.97
2017-05-20T16:39:46.703Z,1013.98
2017-05-20T16:40:38.040Z,1013.97
2017-05-20T16:41:29.323Z,1013.93
2017-05-20T16:42:20.612Z,1013.90
2017-05-20T16:43:11.881Z,1013.93
2017-05-20T16:44:03.178Z,1013.97
2017-05-20T16:44:54.475Z,1013.92
2017-05-20T16:45:45.722Z,1013.88
2017-05-20T16:46:37.771Z,1013.93
2017-05-20T16:47:29.079Z,1013.94
2017-05-20T16:48:20.343Z,1013.98
2017-05-20T16:49:11.609Z,1013.93
2017-05-20T16:50:02.867Z,1013.93
2017-05-20T16:50:54.109Z,1013.91
2017-05-20T16:51:45.379Z,1013.97
2017-05-20T16:52:36.661Z,1013.93
2017-05-20T16:53:27.984Z,1013.91
2017-05-20T16:54:19.239Z,1013.96
2017-05-20T16:55:10.521Z,1013.92
2017-05-20T16:56:01.790Z,1013.96
2017-05-20T16:56:53.056Z,1013.93
2017-05-20T16:57:44.327Z,1013.97
2017-05-20T16:58:35.575Z,1014.00
2017-05-20T16:59:26.842Z,1013.92
2017-05-20T17:00:18.095Z,1013.89
2017-05-20T17:01:09.363Z,1013.93
2017-05-20T17:02:00.622Z,1013.94
2017-05-20T17:02:51.884Z,1013.98
2017-05-20T17:03:43.151Z,1013.97
2017-05-20T17:04:34.422Z,1013.96
2017-05-20T17:05:25.675Z,1013.95
2017-05-20T17:06:16.943Z,1013.99
2017-05-20T17:07:08.463Z,1013.95
2017-05-20T17:07:59.743Z,1013.95
2017-05-20T17:08:50.991Z,1014.06
2017-05-20T17:09:42.242Z,1013.95
2017-05-20T17:10:33.490Z,1013.95
2017-05-20T17:11:24.847Z,1014.05
2017-05-20T17:12:16.304Z,1014.02
2017-05-20T17:13:07.575Z,1014.06
2017-05-20T17:13:58.830Z,1014.06
2017-05-20T17:14:50.097Z,1014.11
2017-05-20T17:15:41.363Z,1014.06
2017-05-20T17:16:32.607Z,1014.12
2017-05-20T17:17:23.860Z,1014.10
2017-05-20T17:18:15.131Z,1014.10
2017-05-20T17:19:06.396Z,1014.16
2017-05-20T17:19:57.649Z,1014.15
2017-05-20T17:20:48.910Z,1014.18
2017-05-20T17:21:40.167Z,1014.16
2017-05-20T17:22:31.427Z,1014.04
2017-05-20T17:23:22.699Z,1014.15
2017-05-20T17:24:13.955Z,1014.04
2017-05-20T17:25:05.207Z,1014.11
2017-05-20T17:25:56.456Z,1014.06
2017-05-20T17:26:47.706Z,1014.12
2017-05-20T17:27:38.965Z,1014.20
2017-05-20T17:28:30.232Z,1014.13
2017-05-20T17:29:21.503Z,1014.13
2017-05-20T17:30:12.760Z,1014.12
2017-05-20T17:31:04.031Z,1014.19
2017-05-20T17:31:55.291Z,1014.22
2017-05-20T17:32:46.544Z,1014.26
2017-05-20T17:33:37.818Z,1014.28
2017-05-20T17:34:29.070Z,1014.30
2017-05-20T17:35:20.323Z,1014.24
2017-05-20T17:36:11.567Z,1014.18
2017-05-20T17:37:02.831Z,1014.30
2017-05-20T17:37:54.076Z,1014.29
2017-05-20T17:38:45.348Z,1014.33
2017-05-20T17:39:36.611Z,1014.34
2017-05-20T17:40:27.888Z,1014.33
2017-05-20T17:41:19.136Z,1014.35
2017-05-20T17:42:10.391Z,1014.44
2017-05-20T17:43:01.638Z,1014.42
2017-05-20T17:43:52.895Z,1014.47
2017-05-20T17:44:44.151Z,1014.38
2017-05-20T17:45:35.414Z,1014.38
2017-05-20T17:46:26.698Z,1014.45
2017-05-20T17:47:17.955Z,1014.44
2017-05-20T17:48:09.199Z,1014.37
2017-05-20T17:49:01.036Z,1014.41
2017-05-20T17:49:52.295Z,1014.43
2017-05-20T17:50:43.543Z,1014.38
2017-05-20T17:51:34.799Z,1014.40
2017-05-20T17:52:26.047Z,1014.47
2017-05-20T17:53:17.311Z,1014.44
2017-05-20T17:54:08.601Z,1014.41
2017-05-20T17:54:59.847Z,1014.47
2017-05-20T17:55:51.121Z,1014.44
2017-05-20T17:56:42.529Z,1014.45
2017-05-20T17:57:33.788Z,1014.53
2017-05-20T17:58:25.077Z,1014.30
2017-05-20T17:59:16.360Z,1014.47
2017-05-20T18:00:07.619Z,1014.51
2017-05-20T18:00:58.879Z,1014.43
2017-05-20T18:01:55.555Z,1014.50
2017-05-20T18:02:46.831Z,1014.61
2017-05-20T18:03:38.097Z,1014.58
2017-05-20T18:04:29.379Z,1014.56
2017-05-20T18:05:20.634Z,1014.57
2017-05-20T18:06:11.896Z,1014.53
2017-05-20T18:07:03.184Z,1014.48
2017-05-20T18:07:54.450Z,1014.58
2017-05-20T18:08:45.708Z,1014.61
2017-05-20T18:09:37.003Z,1014.57
2017-05-20T18:10:28.317Z,1014.60
2017-05-20T18:11:19.607Z,1014.55
2017-05-20T18:12:10.855Z,1014.65
2017-05-20T18:13:02.111Z,1014.64
2017-05-20T18:13:53.360Z,1014.62
2017-05-20T18:14:44.620Z,1014.61
2017-05-20T18:15:35.878Z,1014.64
2017-05-20T18:16:28.140Z,1014.62
2017-05-20T18:17:19.418Z,1014.69
2017-05-20T18:18:10.663Z,1014.63
2017-05-20T18:19:01.914Z,1014.60
2017-05-20T18:19:53.171Z,1014.64
2017-05-20T18:20:44.424Z,1014.61
2017-05-20T18:21:35.674Z,1014.66
2017-05-20T18:22:26.922Z,1014.60
2017-05-20T18:23:18.172Z,1014.64
2017-05-20T18:24:09.431Z,1014.71
2017-05-20T18:25:00.691Z,1014.70
2017-05-20T18:25:51.960Z,1014.69
2017-05-20T18:26:43.228Z,1014.70
2017-05-20T18:27:34.478Z,1014.79
2017-05-20T18:28:25.732Z,1014.75
2017-05-20T18:29:16.980Z,1014.76
2017-05-20T18:30:08.243Z,1014.76
2017-05-20T18:30:59.499Z,1014.72
2017-05-20T18:31:50.760Z,1014.74
2017-05-20T18:32:42.022Z,1014.76
2017-05-20T18:33:33.270Z,1014.86
2017-05-20T18:34:24.529Z,1014.90
2017-05-20T18:35:23.037Z,1014.84
2017-05-20T18:36:14.306Z,1014.83
2017-05-20T18:37:05.563Z,1014.85
2017-05-20T18:37:56.809Z,1014.83
2017-05-20T18:38:48.067Z,1014.81
2017-05-20T18:39:39.311Z,1014.86
2017-05-20T18:40:30.588Z,1014.83
2017-05-20T18:41:21.858Z,1014.86
2017-05-20T18:42:13.118Z,1014.84
2017-05-20T18:43:06.880Z,1014.81
2017-05-20T18:43:58.434Z,1014.85
2017-05-20T18:44:49.691Z,1014.82
2017-05-20T18:45:40.967Z,1014.85
2017-05-20T18:46:32.252Z,1014.88
2017-05-20T18:47:23.507Z,1014.89
2017-05-20T18:48:14.750Z,1014.88
2017-05-20T18:49:06.019Z,1014.88
2017-05-20T18:49:57.277Z,1014.91
2017-05-20T18:50:48.550Z,1014.84
2017-05-20T18:51:39.804Z,1014.88
2017-05-20T18:52:31.055Z,1014.87
2017-05-20T18:53:22.307Z,1014.84
2017-05-20T18:54:13.559Z,1014.93
2017-05-20T18:55:04.815Z,1014.85
2017-05-20T18:55:56.083Z,1014.96
2017-05-20T18:56:47.487Z,1014.92
2017-05-20T18:57:38.744Z,1014.94
2017-05-20T18:58:29.995Z,1014.89
2017-05-20T18:59:21.256Z,1014.89
2017-05-20T19:00:12.499Z,1014.91
2017-05-20T19:01:03.767Z,1014.88
2017-05-20T19:01:56.153Z,1014.92
2017-05-20T19:02:47.688Z,1014.95
2017-05-20T19:03:38.961Z,1014.99
2017-05-20T19:04:30.236Z,1015.00
2017-05-20T19:05:21.515Z,1015.03
2017-05-20T19:06:12.799Z,1014.95
2017-05-20T19:07:04.152Z,1014.97
2017-05-20T19:07:55.412Z,1014.93
2017-05-20T19:08:46.672Z,1014.95
2017-05-20T19:09:37.927Z,1014.97
2017-05-20T19:10:29.183Z,1014.95
2017-05-20T19:11:20.446Z,1014.88
2017-05-20T19:12:11.746Z,1014.96
2017-05-20T19:13:02.987Z,1014.97
2017-05-20T19:13:54.238Z,1015.00
2017-05-20T19:14:45.480Z,1015.05
2017-05-20T19:15:36.727Z,1015.03
2017-05-20T19:16:28.031Z,1015.02
2017-05-20T19:17:19.299Z,1015.00
2017-05-20T19:18:10.546Z,1015.06
2017-05-20T19:19:01.803Z,1015.06
2017-05-20T19:19:53.051Z,1015.04
2017-05-20T19:20:44.327Z,1015.05
2017-05-20T19:21:36.107Z,1015.02
2017-05-20T19:22:30.306Z,1015.03
2017-05-20T19:23:21.571Z,1015.02
2017-05-20T19:24:12.816Z,1015.09
2017-05-20T19:25:04.074Z,1015.08
2017-05-20T19:25:55.328Z,1015.09
2017-05-20T19:26:46.599Z,1015.12
2017-05-20T19:27:37.856Z,1015.15
2017-05-20T19:28:29.115Z,1015.10
2017-05-20T19:29:20.371Z,1015.09
2017-05-20T19:30:11.619Z,1015.12
2017-05-20T19:31:02.864Z,1015.17
2017-05-20T19:31:55.811Z,1015.16
2017-05-20T19:32:47.062Z,1015.19
2017-05-20T19:33:38.311Z,1015.15
2017-05-20T19:34:29.567Z,1015.22
2017-05-20T19:35:20.823Z,1015.25
2017-05-20T19:36:12.091Z,1015.27
2017-05-20T19:37:03.362Z,1015.21
2017-05-20T19:37:58.408Z,1015.27
2017-05-20T19:38:50.003Z,1015.25
2017-05-20T19:39:44.472Z,1015.24
2017-05-20T19:40:39.140Z,1015.29
2017-05-20T19:41:31.444Z,1015.25
2017-05-20T19:42:23.136Z,1015.40
2017-05-20T19:43:17.385Z,1015.26
2017-05-20T19:44:11.615Z,1015.37
2017-05-20T19:45:03.392Z,1015.33
2017-05-20T19:45:54.996Z,1015.39
2017-05-20T19:46:46.744Z,1015.42
2017-05-20T19:47:38.361Z,1015.44
2017-05-20T19:48:30.076Z,1015.41
2017-05-20T19:49:22.335Z,1015.38
2017-05-20T19:50:13.687Z,1015.34
2017-05-20T19:51:04.986Z,1015.46
2017-05-20T19:51:56.255Z,1015.44
2017-05-20T19:52:47.623Z,1015.45
2017-05-20T19:53:38.879Z,1015.44
2017-05-20T19:54:30.172Z,1015.43
2017-05-20T19:55:21.430Z,1015.48
2017-05-20T19:56:12.696Z,1015.47
2017-05-20T19:57:03.954Z,1015.49
2017-05-20T19:57:55.261Z,1015.54
2017-05-20T19:58:46.543Z,1015.50
2017-05-20T19:59:37.797Z,1015.51
2017-05-20T20:00:29.071Z,1015.50
2017-05-20T20:01:20.412Z,1015.57
2017-05-20T20:02:11.671Z,1015.57
2017-05-20T20:03:02.983Z,1015.55
2017-05-20T20:03:54.242Z,1015.58
2017-05-20T20:04:45.503Z,1015.60
2017-05-20T20:05:36.762Z,1015.55
2017-05-20T20:06:28.046Z,1015.60
2017-05-20T20:07:19.311Z,1015.54
2017-05-20T20:08:10.592Z,1015.53
2017-05-20T20:09:01.888Z,1015.55
2017-05-20T20:09:53.340Z,1015.60
2017-05-20T20:10:44.639Z,1015.57
2017-05-20T20:11:35.923Z,1015.57
2017-05-20T20:12:27.183Z,1015.60
2017-05-20T20:13:18.466Z,1015.61
2017-05-20T20:14:09.756Z,1015.59
2017-05-20T20:15:01.031Z,1015.62
2017-05-20T20:15:52.278Z,1015.68
2017-05-20T20:16:43.598Z,1015.66
2017-05-20T20:17:34.860Z,1015.68
2017-05-20T20:18:26.172Z,1015.67
2017-05-20T20:19:17.488Z,1015.72
2017-05-20T20:20:08.751Z,1015.74
2017-05-20T20:21:00.011Z,1015.73
2017-05-20T20:21:51.271Z,1015.78
2017-05-20T20:22:42.531Z,1015.71
2017-05-20T20:23:33.806Z,1015.76
2017-05-20T20:24:25.063Z,1015.78
2017-05-20T20:25:16.322Z,1015.75
2017-05-20T20:26:07.638Z,1015.74
2017-05-20T20:26:58.891Z,1015.84
2017-05-20T20:27:50.152Z,1015.71
2017-05-20T20:28:41.426Z,1015.82
2017-05-20T20:29:32.833Z,1015.78
2017-05-20T20:30:24.110Z,1015.80
2017-05-20T20:31:15.366Z,1015.80
2017-05-20T20:32:06.643Z,1015.82
2017-05-20T20:32:57.924Z,1015.79
2017-05-20T20:33:49.243Z,1015.76
2017-05-20T20:34:40.503Z,1015.79
2017-05-20T20:35:31.772Z,1015.83
2017-05-20T20:36:23.028Z,1015.85
2017-05-20T20:37:14.279Z,1015.84
2017-05-20T20:38:05.669Z,1015.89
2017-05-20T20:38:57.383Z,1015.85
2017-05-20T20:39:48.651Z,1015.92
2017-05-20T20:40:39.910Z,1015.94
2017-05-20T20:41:31.176Z,1015.91
2017-05-20T20:42:22.435Z,1015.87
2017-05-20T20:43:13.699Z,1015.86
2017-05-20T20:44:04.987Z,1015.95
2017-05-20T20:44:56.240Z,1015.90
2017-05-20T20:45:47.525Z,1015.95
2017-05-20T20:46:38.839Z,1015.90
2017-05-20T20:47:30.094Z,1015.98
2017-05-20T20:48:21.349Z,1015.94
2017-05-20T20:49:12.663Z,1015.97
2017-05-20T20:50:03.926Z,1015.99
2017-05-20T20:50:55.187Z,1016.01
2017-05-20T20:51:46.440Z,1016.00
2017-05-20T20:52:37.699Z,1016.05
2017-05-20T20:53:28.993Z,1016.03
2017-05-20T20:54:20.285Z,1015.99
2017-05-20T20:55:11.556Z,1015.99
2017-05-20T20:56:02.822Z,1015.98
2017-05-20T20:56:54.081Z,1015.99
2017-05-20T20:57:45.363Z,1016.08
2017-05-20T20:58:36.663Z,1015.98
2017-05-20T20:59:27.941Z,1015.91
2017-05-20T21:00:19.207Z,1015.94
2017-05-20T21:01:10.483Z,1015.98
2017-05-20T21:02:01.751Z,1016.03
2017-05-20T21:02:53.039Z,1015.99
2017-05-20T21:03:44.331Z,1015.97
2017-05-20T21:04:35.617Z,1015.96
2017-05-20T21:05:26.895Z,1016.01
2017-05-20T21:06:18.175Z,1016.04
2017-05-20T21:07:09.427Z,1015.98
2017-05-20T21:08:00.684Z,1016.05
2017-05-20T21:08:51.999Z,1016.00
2017-05-20T21:09:43.269Z,1016.01
2017-05-20T21:10:34.539Z,1016.07
2017-05-20T21:11:25.815Z,1016.02
2017-05-20T21:12:17.063Z,1016.02
2017-05-20T21:13:08.316Z,1015.97
2017-05-20T21:13:59.578Z,1016.03
2017-05-20T21:14:50.842Z,1016.07
2017-05-20T21:15:42.126Z,1016.04
2017-05-20T21:16:33.385Z,1016.02
2017-05-20T21:17:24.655Z,1016.07
2017-05-20T21:18:15.909Z,1015.95
2017-05-20T21:19:07.239Z,1015.99
2017-05-20T21:19:58.502Z,1016.01
2017-05-20T21:20:49.815Z,1016.04
2017-05-20T21:21:41.074Z,1016.02
2017-05-20T21:22:32.336Z,1016.02
2017-05-20T21:23:23.667Z,1016.09
2017-05-20T21:24:14.944Z,1015.94
2017-05-20T21:25:06.291Z,1016.04
2017-05-20T21:25:57.718Z,1016.09
2017-05-20T21:26:49.036Z,1016.08
2017-05-20T21:27:40.286Z,1016.00
2017-05-20T21:28:31.610Z,1016.06
2017-05-20T21:29:22.868Z,1016.04
2017-05-20T21:30:14.143Z,1016.06
2017-05-20T21:31:05.402Z,1016.08
2017-05-20T21:31:56.690Z,1015.95
2017-05-20T21:32:47.945Z,1016.03
2017-05-20T21:33:39.208Z,1015.99
2017-05-20T21:34:30.495Z,1016.00
2017-05-20T21:35:21.786Z,1016.06
2017-05-20T21:36:13.146Z,1016.10
2017-05-20T21:37:04.660Z,1016.07
2017-05-20T21:37:55.925Z,1016.12
2017-05-20T21:38:47.447Z,1016.16
2017-05-20T21:39:38.695Z,1016.08
2017-05-20T21:40:29.999Z,1016.08
2017-05-20T21:41:21.263Z,1016.10
2017-05-20T21:42:12.520Z,1016.10
2017-05-20T21:43:03.882Z,1016.13
2017-05-20T21:43:55.143Z,1016.13
2017-05-20T21:44:46.451Z,1016.09
2017-05-20T21:45:37.727Z,1016.12
2017-05-20T21:46:29.148Z,1016.09
2017-05-20T21:47:20.455Z,1016.13
2017-05-20T21:48:11.731Z,1016.10
2017-05-20T21:49:03.000Z,1016.19
2017-05-20T21:49:54.265Z,1016.22
2017-05-20T21:50:45.554Z,1016.24
2017-05-20T21:51:36.811Z,1016.22
2017-05-20T21:52:28.094Z,1016.23
2017-05-20T21:53:19.355Z,1016.29
2017-05-20T21:54:10.611Z,1016.26
2017-05-20T21:55:01.971Z,1016.24
2017-05-20T21:55:53.405Z,1016.22
2017-05-20T21:56:44.669Z,1016.23
2017-05-20T21:57:35.947Z,1016.25
2017-05-20T21:58:27.208Z,1016.27
2017-05-20T21:59:18.533Z,1016.18
2017-05-20T22:00:09.975Z,1016.21
2017-05-20T22:01:01.379Z,1016.30
2017-05-20T22:01:52.654Z,1016.29
2017-05-20T22:02:43.940Z,1016.27
2017-05-20T22:03:35.266Z,1016.32
2017-05-20T22:04:26.800Z,1016.32
2017-05-20T22:05:18.064Z,1016.33
2017-05-20T22:06:09.361Z,1016.36
2017-05-20T22:07:00.631Z,1016.41
2017-05-20T22:07:51.904Z,1016.38
2017-05-20T22:08:43.163Z,1016.40
2017-05-20T22:09:34.431Z,1016.36
2017-05-20T22:10:25.687Z,1016.41
2017-05-20T22:11:17.275Z,1016.33
2017-05-20T22:12:08.531Z,1016.33
2017-05-20T22:12:59.784Z,1016.43
2017-05-20T22:13:51.047Z,1016.36
2017-05-20T22:14:42.300Z,1016.43
2017-05-20T22:15:33.555Z,1016.44
2017-05-20T22:16:24.820Z,1016.40
2017-05-20T22:17:16.087Z,1016.48
2017-05-20T22:18:07.346Z,1016.40
2017-05-20T22:18:58.610Z,1016.41
2017-05-20T22:19:49.899Z,1016.58
2017-05-20T22:20:41.154Z,1016.50
2017-05-20T22:21:32.650Z,1016.47
2017-05-20T22:22:23.912Z,1016.47
2017-05-20T22:23:15.159Z,1016.49
2017-05-20T22:24:06.407Z,1016.48
2017-05-20T22:24:57.656Z,1016.55
2017-05-20T22:25:48.906Z,1016.42
2017-05-20T22:26:40.182Z,1016.53
2017-05-20T22:27:31.432Z,1016.47
2017-05-20T22:28:22.688Z,1016.53
2017-05-20T22:29:13.947Z,1016.51
2017-05-20T22:30:05.211Z,1016.51
2017-05-20T22:30:56.780Z,1016.53
2017-05-20T22:31:48.227Z,1016.50
2017-05-20T22:32:39.479Z,1016.54
2017-05-20T22:33:30.730Z,1016.49
2017-05-20T22:34:22.000Z,1016.48
2017-05-20T22:35:13.275Z,1016.49
2017-05-20T22:36:04.588Z,1016.53
2017-05-20T22:36:55.874Z,1016.47
2017-05-20T22:37:47.132Z,1016.51
2017-05-20T22:38:38.395Z,1016.58
2017-05-20T22:39:29.646Z,1016.57
2017-05-20T22:40:20.899Z,1016.57
2017-05-20T22:41:12.155Z,1016.56
2017-05-20T22:42:03.443Z,1016.62
2017-05-20T22:42:54.727Z,1016.54
2017-05-20T22:43:45.987Z,1016.68
2017-05-20T22:44:37.255Z,1016.71
2017-05-20T22:45:28.518Z,1016.60
2017-05-20T22:46:19.771Z,1016.71
2017-05-20T22:47:11.055Z,1016.65
2017-05-20T22:48:02.304Z,1016.67
2017-05-20T22:48:53.558Z,1016.72
2017-05-20T22:49:44.819Z,1016.65
2017-05-20T22:50:36.105Z,1016.70
2017-05-20T22:51:27.431Z,1016.65
2017-05-20T22:52:18.707Z,1016.71
2017-05-20T22:53:09.975Z,1016.66
2017-05-20T22:54:01.247Z,1016.74
2017-05-20T22:54:52.495Z,1016.65
2017-05-20T22:55:43.751Z,1016.73
2017-05-20T22:56:35.019Z,1016.79
2017-05-20T22:57:26.319Z,1016.76
2017-05-20T22:58:17.607Z,1016.81
2017-05-20T22:59:08.855Z,1016.71
2017-05-20T23:00:00.104Z,1016.71
2017-05-20T23:00:51.352Z,1016.77
2017-05-20T23:01:42.607Z,1016.75
2017-05-20T23:02:33.884Z,1016.69
2017-05-20T23:03:25.130Z,1016.75
2017-05-20T23:04:16.398Z,1016.66
2017-05-20T23:05:07.667Z,1016.65
2017-05-20T23:05:58.916Z,1016.65
2017-05-20T23:06:50.160Z,1016.67
2017-05-20T23:07:41.444Z,1016.71
2017-05-20T23:08:32.695Z,1016.70
2017-05-20T23:09:23.943Z,1016.60
2017-05-20T23:10:15.219Z,1016.67
2017-05-20T23:11:06.486Z,1016.68
2017-05-20T23:11:57.744Z,1016.71
2017-05-20T23:12:49.024Z,1016.65
2017-05-20T23:13:40.279Z,1016.66
2017-05-20T23:14:31.543Z,1016.70
2017-05-20T23:15:22.810Z,1016.70
2017-05-20T23:16:14.060Z,1016.72
2017-05-20T23:17:05.315Z,1016.78
2017-05-20T23:17:56.611Z,1016.71
2017-05-20T23:18:47.863Z,1016.72
2017-05-20T23:19:39.121Z,1016.75
2017-05-20T23:20:30.387Z,1016.73
2017-05-20T23:21:21.647Z,1016.73
2017-05-20T23:22:12.894Z,1016.72
2017-05-20T23:23:04.170Z,1016.78
2017-05-20T23:23:55.464Z,1016.82
2017-05-20T23:24:46.735Z,1016.76
2017-05-20T23:25:37.990Z,1016.72
2017-05-20T23:26:29.247Z,1016.78
2017-05-20T23:27:20.499Z,1016.76
2017-05-20T23:28:11.782Z,1016.83
2017-05-20T23:29:03.031Z,1016.81
2017-05-20T23:29:54.286Z,1016.72
2017-05-20T23:30:45.536Z,1016.79
2017-05-20T23:31:36.792Z,1016.74
2017-05-20T23:32:28.050Z,1016.74
2017-05-20T23:33:19.339Z,1016.78
2017-05-20T23:34:10.687Z,1016.74
2017-05-20T23:35:01.942Z,1016.79
2017-05-20T23:35:53.190Z,1016.79
2017-05-20T23:36:44.449Z,1016.81
2017-05-20T23:37:35.712Z,1016.76
2017-05-20T23:38:26.989Z,1016.77
2017-05-20T23:39:18.252Z,1016.80
2017-05-20T23:40:09.506Z,1016.81
2017-05-20T23:41:00.751Z,1016.76
2017-05-20T23:41:52.002Z,1016.70
2017-05-20T23:42:43.259Z,1016.83
2017-05-20T23:43:34.523Z,1016.80
2017-05-20T23:44:25.778Z,1016.89
2017-05-20T23:45:17.032Z,1016.88
2017-05-20T23:46:08.287Z,1016.81
2017-05-20T23:46:59.531Z,1016.83
2017-05-20T23:47:50.767Z,1016.76
2017-05-20T23:48:42.032Z,1016.81
2017-05-20T23:49:33.294Z,1016.82
2017-05-20T23:50:24.547Z,1016.82
2017-05-20T23:51:15.799Z,1016.82
2017-05-20T23:52:07.047Z,1016.79
2017-05-20T23:52:58.307Z,1016.81
2017-05-20T23:53:49.571Z,1016.76
2017-05-20T23:54:40.823Z,1016.76
2017-05-20T23:55:32.079Z,1016.83
2017-05-20T23:56:23.327Z,1016.87
2017-05-20T23:57:14.575Z,1016.86
2017-05-20T23:58:05.830Z,1016.85
2017-05-20T23:58:57.127Z,1016.87
2017-05-20T23:59:48.383Z,1016.77
